Time;durP1;ratioP1;P1;durP2;ratioP2;P2;SDS_P1;SDS_P2;PMS_P1;PMS_P2;Temp;Humidity;BMP_temperature;BMP_pressure;BME280_temperature;BME280_humidity;BME280_pressure;Samples;Min_cycle;Max_cycle;Signal;HPM_P1;HPM_P2
2024/01/12 00:02:14;;;;;;;74.35;28.23;;;;;;;-0.22;100.00;102115.38;10459042;28;20044;-78
2024/01/12 00:07:17;;;;;;;73.97;27.88;;;;;;;-0.16;100.00;102115.34;10472303;28;20172;-77
2024/01/12 00:12:22;;;;;;;74.38;29.58;;;;;;;-0.11;100.00;102109.13;10457319;28;21098;-77
2024/01/12 00:17:25;;;;;;;64.90;27.00;;;;;;;-0.06;100.00;102104.66;10457217;28;20067;-78
2024/01/12 00:22:28;;;;;;;74.55;28.20;;;;;;;-0.01;100.00;102103.75;10455337;28;20186;-77
2024/01/12 00:27:32;;;;;;;75.35;28.42;;;;;;;0.00;100.00;102111.69;10450031;28;20052;-77
2024/01/12 00:32:39;;;;;;;71.95;27.38;;;;;;;-0.03;100.00;102110.81;10451898;28;20052;-77
2024/01/12 00:37:42;;;;;;;71.10;26.75;;;;;;;-0.08;100.00;102108.22;10473921;28;20048;-77
2024/01/12 00:42:46;;;;;;;69.85;27.73;;;;;;;-0.19;100.00;102105.69;10445656;28;20041;-77
2024/01/12 00:47:49;;;;;;;65.03;25.63;;;;;;;-0.12;100.00;102095.94;10462277;28;20047;-77
2024/01/12 00:52:52;;;;;;;76.30;28.77;;;;;;;-0.18;100.00;102102.13;10461576;28;20067;-77
2024/01/12 00:57:57;;;;;;;71.82;29.17;;;;;;;-0.12;100.00;102096.78;10476662;28;20052;-77
2024/01/12 01:03:01;;;;;;;69.93;26.65;;;;;;;-0.11;100.00;102103.84;10466412;28;20423;-77
2024/01/12 01:08:05;;;;;;;68.93;28.73;;;;;;;-0.16;100.00;102094.22;10451312;28;20063;-77
2024/01/12 01:13:09;;;;;;;78.63;29.25;;;;;;;-0.15;100.00;102101.25;10460058;28;20066;-77
2024/01/12 01:18:12;;;;;;;62.28;25.88;;;;;;;-0.15;100.00;102106.53;10462524;28;20047;-77
2024/01/12 01:23:16;;;;;;;75.25;28.33;;;;;;;-0.08;100.00;102111.75;10436545;28;20708;-77
2024/01/12 01:28:20;;;;;;;71.45;27.95;;;;;;;-0.07;100.00;102107.34;10467340;28;20056;-77
2024/01/12 01:33:23;;;;;;;63.78;26.88;;;;;;;-0.06;100.00;102115.22;10468036;28;20048;-77
2024/01/12 01:38:26;;;;;;;68.55;27.50;;;;;;;-0.07;100.00;102118.75;10467401;28;20052;-77
2024/01/12 01:43:31;;;;;;;66.97;26.17;;;;;;;0.01;100.00;102125.75;10465986;28;20044;-77
2024/01/12 01:48:34;;;;;;;69.10;27.88;;;;;;;-0.10;100.00;102125.84;10454534;28;20048;-77
2024/01/12 01:53:37;;;;;;;66.50;27.00;;;;;;;-0.12;100.00;102117.94;10458997;28;20049;-76
2024/01/12 01:58:42;;;;;;;65.70;26.48;;;;;;;-0.14;100.00;102119.72;10447249;28;20117;-78
2024/01/12 02:03:48;;;;;;;69.38;27.77;;;;;;;-0.08;100.00;102118.81;10498276;28;20055;-77
2024/01/12 02:08:51;;;;;;;75.03;29.65;;;;;;;-0.08;100.00;102117.03;10499046;28;20059;-77
2024/01/12 02:13:55;;;;;;;82.68;28.90;;;;;;;-0.09;100.00;102123.19;10483051;28;20182;-77
2024/01/12 02:18:58;;;;;;;73.65;28.30;;;;;;;0.00;100.00;102132.81;10472542;28;20055;-77
2024/01/12 02:24:03;;;;;;;83.10;30.38;;;;;;;0.04;100.00;102121.31;10456463;28;20446;-77
2024/01/12 02:29:06;;;;;;;81.88;28.52;;;;;;;0.00;100.00;102124.88;10473173;28;20054;-77
2024/01/12 02:34:09;;;;;;;82.55;30.15;;;;;;;0.00;100.00;102122.25;10455876;28;20464;-77
2024/01/12 02:39:14;;;;;;;77.95;28.42;;;;;;;0.06;100.00;102130.13;10462651;28;20110;-77
2024/01/12 02:44:17;;;;;;;91.50;28.52;;;;;;;-0.01;100.00;102130.19;10470618;28;21370;-77
2024/01/12 02:49:20;;;;;;;80.57;27.63;;;;;;;0.00;100.00;102130.19;10466334;28;20112;-77
2024/01/12 02:54:25;;;;;;;81.28;27.63;;;;;;;0.02;100.00;102120.44;10469415;28;20063;-77
2024/01/12 02:59:28;;;;;;;74.20;26.70;;;;;;;0.03;100.00;102123.97;10476319;28;21187;-77
2024/01/12 03:04:31;;;;;;;87.97;28.80;;;;;;;-0.06;100.00;102123.16;10457734;28;21151;-77
2024/01/12 03:09:35;;;;;;;76.80;26.85;;;;;;;0.06;100.00;102132.75;10467290;28;20053;-77
2024/01/12 03:14:38;;;;;;;85.20;27.77;;;;;;;0.10;100.00;102120.38;10454175;28;20059;-77
2024/01/12 03:19:41;;;;;;;75.00;25.50;;;;;;;0.04;100.00;102110.75;10426384;28;1149902;-77
2024/01/12 03:24:45;;;;;;;71.65;26.25;;;;;;;0.08;100.00;102106.28;10461496;28;20098;-77
2024/01/12 03:29:49;;;;;;;68.47;24.60;;;;;;;0.08;100.00;102091.34;10464882;28;20052;-77
2024/01/12 03:34:52;;;;;;;73.47;26.10;;;;;;;0.10;100.00;102091.31;10466274;28;20135;-77
2024/01/12 03:39:57;;;;;;;81.85;26.50;;;;;;;0.15;100.00;102102.72;10468335;28;20083;-77
2024/01/12 03:45:00;;;;;;;70.40;25.50;;;;;;;0.01;100.00;102097.56;10474390;28;20515;-77
2024/01/12 03:50:03;;;;;;;59.20;20.65;;;;;;;-0.24;100.00;102090.78;10448898;28;20669;-77
2024/01/12 03:55:08;;;;;;;57.00;20.60;;;;;;;-0.15;100.00;102083.63;10477347;28;20052;-77
2024/01/12 04:00:12;;;;;;;67.20;20.10;;;;;;;0.02;100.00;102080.81;10457464;28;20044;-77
2024/01/12 04:05:15;;;;;;;66.18;22.70;;;;;;;0.08;100.00;102069.28;10451576;28;20048;-77
2024/01/12 04:10:19;;;;;;;60.40;21.05;;;;;;;0.01;100.00;102075.56;10465856;28;20083;-77
2024/01/12 04:15:23;;;;;;;62.30;20.25;;;;;;;-0.06;100.00;102080.00;10470754;28;20679;-77
2024/01/12 04:20:26;;;;;;;63.85;19.95;;;;;;;0.07;100.00;102083.41;10462620;28;20052;-77
2024/01/12 04:25:30;;;;;;;53.67;19.27;;;;;;;0.12;100.00;102090.41;10466340;28;20477;-77
2024/01/12 04:30:33;;;;;;;63.75;19.02;;;;;;;0.11;100.00;102091.31;10466623;28;20070;-77
2024/01/12 04:35:36;;;;;;;56.42;18.63;;;;;;;0.09;100.00;102079.00;10464758;28;20475;-77
2024/01/12 04:40:41;;;;;;;59.13;18.70;;;;;;;-0.02;100.00;102088.81;10467348;28;20044;-77
2024/01/12 04:45:44;;;;;;;52.58;18.33;;;;;;;-0.14;100.00;102077.47;10460614;28;20044;-77
2024/01/12 04:50:47;;;;;;;60.15;19.92;;;;;;;-0.37;100.00;102080.28;10460817;28;20050;-78
2024/01/12 04:55:52;;;;;;;58.95;19.80;;;;;;;-0.21;100.00;102069.59;10466236;28;20045;-77
2024/01/12 05:00:55;;;;;;;59.33;20.15;;;;;;;-0.20;100.00;102064.28;10473761;28;20047;-77
2024/01/12 05:05:58;;;;;;;58.80;21.55;;;;;;;-0.12;100.00;102070.38;10465779;28;20044;-77
2024/01/12 05:11:03;;;;;;;59.28;20.75;;;;;;;-0.24;100.00;102074.91;10468154;28;20393;-77
2024/01/12 05:16:07;;;;;;;62.70;20.85;;;;;;;-0.12;100.00;102080.06;10462767;28;21259;-77
2024/01/12 05:21:10;;;;;;;58.50;20.67;;;;;;;-0.11;100.00;102071.25;10472956;28;20047;-77
2024/01/12 05:26:15;;;;;;;52.92;18.58;;;;;;;-0.45;100.00;102061.00;10458852;28;20126;-77
2024/01/12 05:31:18;;;;;;;52.45;17.35;;;;;;;-0.54;100.00;102067.22;10465698;28;20052;-77
2024/01/12 05:36:21;;;;;;;48.58;17.65;;;;;;;-0.52;100.00;102046.13;10460454;28;21270;-77
2024/01/12 05:41:25;;;;;;;58.55;18.17;;;;;;;-0.32;100.00;102060.00;10470393;28;20063;-77
2024/01/12 05:46:29;;;;;;;53.55;16.83;;;;;;;-0.40;100.00;102045.13;10469775;28;20818;-78
2024/01/12 05:51:32;;;;;;;53.72;17.70;;;;;;;-0.46;100.00;102048.69;10459602;28;20083;-78
2024/01/12 05:56:36;;;;;;;51.80;19.65;;;;;;;-0.59;100.00;102047.91;10469179;28;20041;-78
2024/01/12 06:01:40;;;;;;;50.60;16.42;;;;;;;-0.57;100.00;102037.34;10454474;28;20056;-78
2024/01/12 06:06:43;;;;;;;50.13;15.65;;;;;;;-0.56;100.00;102047.88;10466846;28;20383;-78
2024/01/12 06:11:47;;;;;;;59.95;17.58;;;;;;;-0.45;100.00;102058.34;10469845;28;20059;-78
2024/01/12 06:16:51;;;;;;;48.00;16.50;;;;;;;-0.80;100.00;102048.94;10477080;28;20064;-78
2024/01/12 06:21:54;;;;;;;55.47;16.00;;;;;;;-0.73;100.00;102049.78;10489220;28;20049;-77
2024/01/12 06:26:58;;;;;;;44.03;15.48;;;;;;;-0.50;100.00;102039.91;10503489;28;20112;-78
2024/01/12 06:32:06;;;;;;;53.92;16.25;;;;;;;-0.64;100.00;102036.50;10478834;28;20158;-78
2024/01/12 06:37:12;;;;;;;50.95;17.70;;;;;;;-0.34;100.00;102043.28;10476677;28;20048;-79
2024/01/12 06:42:17;;;;;;;55.80;17.50;;;;;;;-0.51;100.00;102029.38;10482286;28;21185;-78
2024/01/12 06:47:20;;;;;;;52.38;16.70;;;;;;;-0.69;100.00;102029.50;10482585;28;20045;-78
2024/01/12 06:52:23;;;;;;;48.75;15.70;;;;;;;-0.41;100.00;102025.78;10468125;28;20118;-78
2024/01/12 06:57:27;;;;;;;47.08;16.25;;;;;;;-0.31;100.00;102031.81;10485473;28;20058;-78
2024/01/12 07:02:30;;;;;;;61.22;18.15;;;;;;;-0.39;100.00;102031.88;10473715;28;20057;-78
2024/01/12 07:07:33;;;;;;;49.67;15.88;;;;;;;-0.24;100.00;102053.78;10478071;28;20100;-78
2024/01/12 07:12:38;;;;;;;52.67;16.38;;;;;;;-0.07;100.00;102054.50;10471556;28;20056;-78
2024/01/12 07:17:41;;;;;;;47.85;16.38;;;;;;;-0.04;100.00;102053.59;10463149;28;20523;-78
2024/01/12 07:22:45;;;;;;;56.25;14.60;;;;;;;-0.39;100.00;102046.88;10472311;28;20045;-78
2024/01/12 07:27:49;;;;;;;51.40;16.27;;;;;;;-0.33;100.00;102050.34;10474345;28;20162;-78
2024/01/12 07:32:52;;;;;;;46.83;15.80;;;;;;;-0.10;100.00;102065.09;10468523;28;20669;-78
2024/01/12 07:37:55;;;;;;;52.55;14.77;;;;;;;-0.31;100.00;102066.16;10468524;28;20062;-78
2024/01/12 07:42:59;;;;;;;60.70;18.95;;;;;;;-0.30;100.00;102066.16;10475172;28;20507;-78
2024/01/12 07:48:02;;;;;;;49.50;15.07;;;;;;;-0.23;100.00;102074.03;10476581;28;20100;-79
2024/01/12 07:53:06;;;;;;;62.95;20.23;;;;;;;0.23;100.00;102071.78;10492042;28;20056;-78
2024/01/12 07:58:11;;;;;;;52.28;15.35;;;;;;;0.06;100.00;102077.25;10462601;28;20053;-79
2024/01/12 08:03:14;;;;;;;54.22;16.65;;;;;;;-0.01;100.00;102077.31;10470259;28;20049;-78
2024/01/12 08:08:17;;;;;;;38.47;14.85;;;;;;;0.07;100.00;102062.28;10473934;28;20249;-78
2024/01/12 08:13:21;;;;;;;39.10;12.60;;;;;;;-0.29;100.00;102067.91;10466175;28;20056;-78
2024/01/12 08:18:24;;;;;;;34.72;13.63;;;;;;;-0.29;100.00;102059.97;10466629;28;20057;-77
2024/01/12 08:23:28;;;;;;;41.78;14.00;;;;;;;-0.08;100.00;102073.88;10460681;28;20044;-78
2024/01/12 08:28:32;;;;;;;41.75;14.68;;;;;;;-0.29;100.00;102065.25;10459842;28;20048;-79
2024/01/12 08:33:37;;;;;;;48.85;17.00;;;;;;;-0.17;100.00;102066.91;10464034;28;20079;-79
2024/01/12 08:38:42;;;;;;;49.72;16.02;;;;;;;-0.23;100.00;102064.31;10479544;28;20680;-78
2024/01/12 08:43:46;;;;;;;50.92;17.40;;;;;;;-0.36;100.00;102070.59;10457284;28;20067;-78
2024/01/12 08:48:49;;;;;;;48.35;16.85;;;;;;;-0.68;100.00;102070.88;10455613;28;20040;-79
2024/01/12 08:53:52;;;;;;;58.45;18.73;;;;;;;-0.25;100.00;102065.22;10456912;28;20040;-79
2024/01/12 08:58:57;;;;;;;53.45;16.98;;;;;;;-0.40;100.00;102056.56;10446584;28;20127;-78
2024/01/12 09:04:01;;;;;;;49.50;15.93;;;;;;;-0.74;100.00;102062.13;10448453;28;20067;-78
2024/01/12 09:09:05;;;;;;;54.33;18.10;;;;;;;-0.42;100.00;102053.03;10439217;28;20678;-78
2024/01/12 09:14:09;;;;;;;64.75;19.83;;;;;;;-0.64;100.00;102047.06;10457027;28;20500;-79
2024/01/12 09:19:12;;;;;;;58.55;17.45;;;;;;;-0.36;100.00;102060.91;10445159;28;20049;-77
2024/01/12 09:24:16;;;;;;;55.10;18.08;;;;;;;-0.45;100.00;102068.91;10445590;28;20162;-78
2024/01/12 09:29:21;;;;;;;42.05;15.30;;;;;;;-0.68;100.00;102053.28;10438826;28;20045;-78
2024/01/12 09:34:24;;;;;;;51.75;18.27;;;;;;;-0.64;100.00;102062.03;10437760;28;20972;-78
2024/01/12 09:39:27;;;;;;;35.22;14.25;;;;;;;-0.54;100.00;102061.09;10444369;28;20072;-78
2024/01/12 09:44:37;;;;;;;49.08;17.65;;;;;;;-0.53;100.00;102065.47;10448391;28;20053;-79
2024/01/12 09:49:53;;;;;;;49.05;17.67;;;;;;;-0.40;100.00;102051.28;10460254;28;20047;-79
2024/01/12 09:54:56;;;;;;;49.28;15.68;;;;;;;-0.82;100.00;102060.44;10463810;28;20048;-79
2024/01/12 10:00:05;;;;;;;55.17;19.80;;;;;;;-0.57;100.00;102048.78;10470385;28;20862;-77
2024/01/12 10:05:10;;;;;;;55.22;20.27;;;;;;;-0.41;100.00;102046.91;10461784;28;20044;-78
2024/01/12 10:10:13;;;;;;;54.55;20.30;;;;;;;-0.46;100.00;102034.63;10460881;28;20056;-79
2024/01/12 10:15:19;;;;;;;46.30;18.17;;;;;;;-0.35;100.00;102022.19;10468641;28;20115;-77
2024/01/12 10:20:22;;;;;;;48.50;17.95;;;;;;;-0.42;100.00;102016.06;10481819;28;20040;-80
2024/01/12 10:25:25;;;;;;;51.10;18.20;;;;;;;-0.24;100.00;102009.75;10471782;28;20052;-77
2024/01/12 10:30:31;;;;;;;48.53;18.25;;;;;;;-0.19;100.00;102012.31;10490952;28;20095;-76
2024/01/12 10:35:34;;;;;;;50.60;20.10;;;;;;;-0.47;100.00;102019.66;10507305;28;20040;-77
2024/01/12 10:40:37;;;;;;;52.25;17.25;;;;;;;-0.44;100.00;102009.94;10472447;28;20044;-79
2024/01/12 10:45:45;;;;;;;57.65;19.38;;;;;;;-0.38;100.00;102001.97;10472740;28;20585;-78
2024/01/12 10:50:58;;;;;;;54.17;17.90;;;;;;;-0.37;100.00;101984.34;10469933;28;20045;-79
2024/01/12 10:56:02;;;;;;;50.28;18.05;;;;;;;-1.03;100.00;101991.06;10470401;28;20059;-78
2024/01/12 11:01:07;;;;;;;32.15;12.55;;;;;;;-0.78;100.00;101978.56;10466991;28;20080;-79
2024/01/12 11:06:12;;;;;;;39.80;15.25;;;;;;;-0.52;100.00;101975.69;10480515;28;20067;-78
2024/01/12 11:11:20;;;;;;;35.60;13.70;;;;;;;-0.37;100.00;101963.22;10473536;28;20789;-79
2024/01/12 11:16:25;;;;;;;40.17;14.82;;;;;;;0.09;100.00;101958.28;10473790;28;20070;-79
2024/01/12 11:21:28;;;;;;;44.03;17.77;;;;;;;0.19;100.00;101969.59;10470653;28;20086;-79
2024/01/12 11:26:31;;;;;;;44.75;13.98;;;;;;;-0.20;100.00;101970.97;10467741;28;20131;-79
2024/01/12 11:31:36;;;;;;;43.00;15.13;;;;;;;-0.40;100.00;101964.13;10468323;28;20116;-79
2024/01/12 11:36:39;;;;;;;30.77;12.18;;;;;;;-0.29;100.00;101969.31;10467521;28;20048;-80
2024/01/12 11:41:45;;;;;;;37.58;15.85;;;;;;;-0.52;100.00;101973.06;10460325;28;20131;-79
2024/01/12 11:46:50;;;;;;;40.65;14.38;;;;;;;-0.34;100.00;101964.06;10470446;28;20055;-78
2024/01/12 11:52:02;;;;;;;36.75;15.38;;;;;;;-0.19;100.00;101951.56;10462434;28;20051;-80
2024/01/12 11:57:05;;;;;;;36.85;14.13;;;;;;;-0.35;100.00;101943.84;10472372;28;21443;-79
2024/01/12 12:02:12;;;;;;;45.17;15.38;;;;;;;-0.57;100.00;101934.41;10474396;28;20701;-79
2024/01/12 12:07:15;;;;;;;41.33;14.27;;;;;;;-0.48;100.00;101923.72;10472604;28;20583;-78
2024/01/12 12:12:19;;;;;;;40.95;16.73;;;;;;;-0.45;100.00;101914.91;10473212;28;20036;-77
2024/01/12 12:17:27;;;;;;;38.97;14.35;;;;;;;-0.69;100.00;101911.63;10459893;28;20045;-77
2024/01/12 12:22:31;;;;;;;36.20;14.00;;;;;;;-0.93;100.00;101903.94;10460648;28;20059;-76
2024/01/12 12:27:34;;;;;;;32.60;12.35;;;;;;;-0.74;100.00;101900.22;10464605;28;20052;-77
2024/01/12 12:32:44;;;;;;;36.28;14.80;;;;;;;-0.91;100.00;101910.94;10463994;28;20056;-76
2024/01/12 12:37:47;;;;;;;28.38;11.35;;;;;;;-1.10;100.00;101907.59;10474083;28;20079;-77
2024/01/12 12:42:51;;;;;;;28.20;11.43;;;;;;;-0.96;100.00;101891.63;10472078;28;20143;-77
2024/01/12 12:47:55;;;;;;;28.58;11.00;;;;;;;-1.10;100.00;101881.22;10459461;28;20793;-79
2024/01/12 12:52:58;;;;;;;36.20;13.20;;;;;;;-0.78;100.00;101873.00;10466009;28;20059;-78
2024/01/12 12:58:02;;;;;;;33.78;12.88;;;;;;;-0.83;100.00;101858.97;10447879;28;20532;-77
2024/01/12 13:03:06;;;;;;;32.05;11.23;;;;;;;-0.62;100.00;101851.75;10460327;28;20423;-80
2024/01/12 13:08:09;;;;;;;20.20;9.57;;;;;;;-0.51;100.00;101844.56;10468855;28;20044;-79
2024/01/12 13:13:13;;;;;;;35.65;13.00;;;;;;;-0.48;100.00;101838.38;10452859;28;20612;-78
2024/01/12 13:18:17;;;;;;;29.70;12.30;;;;;;;-0.38;100.00;101832.97;10460796;28;20048;-79
2024/01/12 13:23:21;;;;;;;24.90;11.27;;;;;;;-0.18;100.00;101827.41;10472389;28;20068;-79
2024/01/12 13:28:24;;;;;;;24.67;11.48;;;;;;;-0.41;100.00;101819.81;10460153;28;20861;-78
2024/01/12 13:33:28;;;;;;;13.43;6.00;;;;;;;-0.53;100.00;101819.94;10469819;28;20048;-77
2024/01/12 13:38:32;;;;;;;19.42;8.18;;;;;;;-0.54;100.00;101819.06;10461031;28;20056;-77
2024/01/12 13:43:36;;;;;;;21.92;9.77;;;;;;;-0.46;100.00;101823.41;10458850;28;20049;-77
2024/01/12 13:48:41;;;;;;;22.40;10.52;;;;;;;-0.35;100.00;101824.13;10461402;28;20049;-79
2024/01/12 13:53:45;;;;;;;19.92;9.75;;;;;;;-0.17;100.00;101820.34;10461046;28;20059;-79
2024/01/12 13:58:52;;;;;;;18.35;9.80;;;;;;;-0.51;100.00;101815.53;10453512;28;20044;-77
2024/01/12 14:03:57;;;;;;;19.08;8.32;;;;;;;-0.32;100.00;101824.97;10458307;28;20056;-79
2024/01/12 14:09:02;;;;;;;22.88;9.30;;;;;;;-0.23;100.00;101820.44;10458525;28;20072;-79
2024/01/12 14:14:06;;;;;;;16.10;7.35;;;;;;;-0.16;100.00;101808.91;10466306;28;20132;-78
2024/01/12 14:19:11;;;;;;;21.15;9.75;;;;;;;-0.17;100.00;101817.72;10492100;28;20108;-79
2024/01/12 14:24:14;;;;;;;18.45;8.65;;;;;;;-0.28;100.00;101810.81;10471064;28;20051;-79
2024/01/12 14:29:21;;;;;;;20.75;9.38;;;;;;;-0.44;100.00;101805.75;10467394;28;20131;-78
2024/01/12 14:34:27;;;;;;;23.15;10.38;;;;;;;-0.45;100.00;101811.94;10470280;28;20104;-79
2024/01/12 14:39:31;;;;;;;22.00;10.25;;;;;;;-0.60;100.00;101818.28;10468826;28;20672;-78
2024/01/12 14:44:34;;;;;;;24.70;11.10;;;;;;;-0.85;100.00;101801.81;10464724;28;20055;-77
2024/01/12 14:49:39;;;;;;;24.20;11.32;;;;;;;-0.67;100.00;101799.00;10466555;28;20049;-78
2024/01/12 14:54:44;;;;;;;28.63;11.35;;;;;;;-0.82;100.00;101786.00;10454357;28;20051;-79
2024/01/12 14:59:48;;;;;;;24.17;10.90;;;;;;;-0.82;100.00;101786.84;10475967;28;20056;-79
2024/01/12 15:04:52;;;;;;;17.95;9.00;;;;;;;-0.70;100.00;101783.19;10486399;28;20110;-79
2024/01/12 15:09:55;;;;;;;30.88;12.98;;;;;;;-0.39;100.00;101794.22;10461473;28;20059;-79
2024/01/12 15:14:59;;;;;;;29.90;12.32;;;;;;;-0.27;100.00;101790.56;10451265;28;20099;-78
2024/01/12 15:20:04;;;;;;;28.60;11.95;;;;;;;-0.44;100.00;101793.41;10467474;28;20845;-79
2024/01/12 15:25:08;;;;;;;23.10;10.70;;;;;;;-0.39;100.00;101796.00;10466064;28;20864;-78
2024/01/12 15:30:12;;;;;;;26.83;11.75;;;;;;;-0.56;100.00;101789.16;10467296;28;20056;-79
2024/01/12 15:35:17;;;;;;;26.88;11.60;;;;;;;-0.49;100.00;101787.34;10466087;28;20058;-78
2024/01/12 15:40:20;;;;;;;24.27;11.93;;;;;;;-0.67;100.00;101780.50;10464251;28;20044;-78
2024/01/12 15:45:27;;;;;;;28.63;12.50;;;;;;;-0.45;100.00;101781.13;10460824;28;20072;-78
2024/01/12 15:50:31;;;;;;;30.40;13.45;;;;;;;-0.61;100.00;101779.56;10461409;28;20055;-78
2024/01/12 15:55:34;;;;;;;30.70;13.52;;;;;;;-0.38;100.00;101769.59;10462204;28;20156;-79
2024/01/12 16:00:38;;;;;;;29.77;13.85;;;;;;;-0.47;100.00;101772.34;10444809;28;20059;-78
2024/01/12 16:05:43;;;;;;;35.85;14.63;;;;;;;-0.35;100.00;101782.75;10460644;28;20045;-79
2024/01/12 16:10:46;;;;;;;35.47;15.25;;;;;;;-0.22;100.00;101782.56;10460151;28;20114;-79
2024/01/12 16:15:49;;;;;;;26.08;10.30;;;;;;;-0.37;100.00;101778.38;10452682;28;20430;-78
2024/01/12 16:20:55;;;;;;;34.92;13.52;;;;;;;-0.20;100.00;101771.09;10453470;28;20056;-77
2024/01/12 16:25:58;;;;;;;35.45;14.43;;;;;;;-0.36;100.00;101773.06;10480177;28;20048;-78
2024/01/12 16:31:03;;;;;;;39.35;14.27;;;;;;;-0.21;100.00;101773.78;10452047;28;20043;-78
2024/01/12 16:36:07;;;;;;;36.58;15.05;;;;;;;-0.23;100.00;101786.13;10456041;28;20037;-77
2024/01/12 16:41:14;;;;;;;43.13;15.43;;;;;;;-0.25;100.00;101774.69;10454404;28;20049;-78
2024/01/12 16:46:17;;;;;;;39.17;17.70;;;;;;;-0.04;100.00;101777.03;10444840;28;20057;-78
2024/01/12 16:51:22;;;;;;;42.17;18.58;;;;;;;-0.04;100.00;101768.25;10450081;28;20060;-80
2024/01/12 16:56:25;;;;;;;47.20;18.48;;;;;;;-0.18;100.00;101765.81;10446943;28;20063;-78
2024/01/12 17:01:28;;;;;;;45.10;17.70;;;;;;;-0.17;100.00;101767.53;10435782;28;20056;-79
2024/01/12 17:06:39;;;;;;;40.25;16.27;;;;;;;-0.19;100.00;101764.03;10440696;28;20056;-78
2024/01/12 17:11:43;;;;;;;48.90;17.70;;;;;;;-0.30;100.00;101758.94;10451954;28;20051;-79
2024/01/12 17:16:47;;;;;;;54.45;21.38;;;;;;;-0.21;100.00;101750.00;10452805;28;20045;-80
2024/01/12 17:21:51;;;;;;;47.42;17.55;;;;;;;-0.21;100.00;101744.72;10455305;28;20129;-79
2024/01/12 17:26:54;;;;;;;61.97;22.83;;;;;;;0.03;100.00;101744.34;10456596;28;20082;-78
2024/01/12 17:31:58;;;;;;;67.45;22.73;;;;;;;-0.29;100.00;101743.03;10441920;28;20055;-80
2024/01/12 17:37:03;;;;;;;56.80;20.38;;;;;;;-0.27;100.00;101732.47;10449524;28;20052;-79
2024/01/12 17:42:06;;;;;;;70.65;25.63;;;;;;;-0.07;100.00;101735.69;10449527;28;20859;-80
2024/01/12 17:47:10;;;;;;;72.50;27.73;;;;;;;-0.01;100.00;101733.84;10435183;28;20044;-78
2024/01/12 17:52:14;;;;;;;57.78;19.27;;;;;;;-0.35;100.00;101722.00;10450115;28;20512;-78
2024/01/12 17:57:19;;;;;;;70.82;22.55;;;;;;;-0.42;100.00;101724.75;10442391;28;20083;-79
2024/01/12 18:02:22;;;;;;;71.60;23.80;;;;;;;-0.30;100.00;101733.38;10446226;28;20511;-78
2024/01/12 18:07:28;;;;;;;61.22;23.23;;;;;;;-0.12;100.00;101737.50;10438295;28;20045;-80
2024/01/12 18:12:31;;;;;;;48.05;18.02;;;;;;;-0.65;100.00;101741.78;10459954;28;20045;-78
2024/01/12 18:17:34;;;;;;;75.43;24.73;;;;;;;0.00;100.00;101744.41;10456096;28;20179;-78
2024/01/12 18:22:38;;;;;;;47.67;20.52;;;;;;;-0.29;100.00;101750.09;10452716;28;20044;-80
2024/01/12 18:27:41;;;;;;;65.32;20.33;;;;;;;-0.61;100.00;101732.91;10468176;28;20098;-79
2024/01/12 18:32:44;;;;;;;59.63;20.38;;;;;;;-0.31;100.00;101731.63;10456308;28;20049;-77
2024/01/12 18:37:49;;;;;;;69.70;24.77;;;;;;;-0.18;100.00;101728.81;10478112;28;20045;-79
2024/01/12 18:42:52;;;;;;;55.42;17.58;;;;;;;-0.31;100.00;101736.91;10458327;28;20597;-79
2024/01/12 18:47:55;;;;;;;75.68;30.40;;;;;;;-0.14;100.00;101720.84;10439444;28;20420;-79
2024/01/12 18:52:59;;;;;;;35.15;12.35;;;;;;;-0.49;100.00;101721.34;10441064;28;20044;-77
2024/01/12 18:58:02;;;;;;;72.35;23.65;;;;;;;-0.34;100.00;101723.75;10459041;28;20056;-77
2024/01/12 19:03:05;;;;;;;67.97;23.55;;;;;;;-0.42;100.00;101727.41;10459067;28;20041;-77
2024/01/12 19:08:10;;;;;;;42.67;18.77;;;;;;;-0.09;100.00;101731.31;10435983;28;20594;-79
2024/01/12 19:13:13;;;;;;;65.55;26.15;;;;;;;0.03;100.00;101725.84;10488007;28;20041;-78
2024/01/12 19:18:16;;;;;;;60.22;24.13;;;;;;;-0.13;100.00;101721.69;10447960;28;20049;-77
2024/01/12 19:23:21;;;;;;;63.05;23.75;;;;;;;-0.07;100.00;101719.81;10442922;28;20044;-78
2024/01/12 19:28:24;;;;;;;67.78;26.23;;;;;;;-0.38;100.00;101722.06;10445314;28;20063;-80
2024/01/12 19:33:27;;;;;;;66.50;25.65;;;;;;;0.00;100.00;101720.63;10448685;28;20052;-80
2024/01/12 19:38:31;;;;;;;75.22;30.95;;;;;;;0.01;100.00;101713.56;10458728;28;20051;-80
2024/01/12 19:43:35;;;;;;;72.65;26.77;;;;;;;0.17;100.00;101710.63;10458997;28;20051;-79
2024/01/12 19:48:38;;;;;;;80.03;30.58;;;;;;;-0.11;100.00;101699.66;10457038;28;20043;-80
2024/01/12 19:53:42;;;;;;;57.13;20.15;;;;;;;-0.11;100.00;101696.13;10452090;28;20052;-80
2024/01/12 19:58:47;;;;;;;53.38;21.58;;;;;;;-0.23;100.00;101688.41;10458650;28;20070;-78
2024/01/12 20:03:50;;;;;;;58.38;22.42;;;;;;;-0.27;100.00;101684.94;10456321;28;20040;-79
2024/01/12 20:08:54;;;;;;;65.22;23.80;;;;;;;-0.20;100.00;101675.13;10453924;28;20108;-79
2024/01/12 20:13:57;;;;;;;75.97;28.85;;;;;;;-0.21;100.00;101681.31;10460275;28;20044;-79
2024/01/12 20:19:01;;;;;;;68.13;25.55;;;;;;;-0.19;100.00;101674.22;10457891;28;20044;-79
2024/01/12 20:24:05;;;;;;;56.53;20.88;;;;;;;-0.25;100.00;101671.69;10459232;28;20118;-79
2024/01/12 20:29:09;;;;;;;78.97;23.00;;;;;;;-0.21;100.00;101665.47;10462311;28;20056;-79
2024/01/12 20:34:12;;;;;;;69.53;23.38;;;;;;;-0.45;100.00;101654.38;10456215;28;20119;-79
2024/01/12 20:39:16;;;;;;;89.10;31.48;;;;;;;-0.18;100.00;101655.72;10456763;28;20090;-79
2024/01/12 20:44:19;;;;;;;81.72;32.47;;;;;;;-0.10;100.00;101663.53;10467427;28;20079;-77
2024/01/12 20:49:22;;;;;;;83.50;31.15;;;;;;;0.20;100.00;101666.56;10486629;28;20598;-79
2024/01/12 20:54:27;;;;;;;90.07;32.03;;;;;;;-0.14;100.00;101660.09;10457769;28;20134;-78
2024/01/12 20:59:30;;;;;;;82.78;27.98;;;;;;;0.05;100.00;101655.34;10450225;28;20058;-78
2024/01/12 21:04:34;;;;;;;89.45;31.08;;;;;;;0.05;100.00;101649.19;10437570;28;20677;-79
2024/01/12 21:09:38;;;;;;;70.97;21.30;;;;;;;0.21;100.00;101644.50;10440991;28;20055;-79
2024/01/12 21:14:41;;;;;;;106.72;32.40;;;;;;;0.25;100.00;101638.25;10451009;28;20048;-79
2024/01/12 21:19:44;;;;;;;147.18;36.28;;;;;;;0.15;100.00;101637.56;10454095;28;20041;-80
2024/01/12 21:24:48;;;;;;;84.32;21.67;;;;;;;0.07;100.00;101623.63;10454060;28;20124;-79
2024/01/12 21:29:51;;;;;;;122.57;32.72;;;;;;;-0.02;100.00;101626.44;10440155;28;20041;-77
2024/01/12 21:34:54;;;;;;;164.48;35.53;;;;;;;0.44;100.00;101615.88;10454153;28;20054;-79
2024/01/12 21:39:59;;;;;;;115.78;34.45;;;;;;;0.28;100.00;101617.09;10453289;28;20041;-78
2024/01/12 21:45:02;;;;;;;114.10;30.70;;;;;;;0.00;100.00;101625.50;10466963;28;20131;-79
2024/01/12 21:50:06;;;;;;;142.75;31.45;;;;;;;0.11;100.00;101620.91;10466476;28;21542;-79
2024/01/12 21:55:11;;;;;;;121.97;35.17;;;;;;;0.35;100.00;101626.63;10458422;28;20790;-78
2024/01/12 22:00:14;;;;;;;80.85;28.17;;;;;;;0.14;100.00;101630.53;10461576;28;20085;-78
2024/01/12 22:05:18;;;;;;;96.85;33.53;;;;;;;0.01;100.00;101619.31;10452894;28;20051;-77
2024/01/12 22:10:22;;;;;;;85.97;27.27;;;;;;;0.09;100.00;101622.69;10462781;28;20052;-79
2024/01/12 22:15:25;;;;;;;69.13;22.90;;;;;;;-0.02;100.00;101610.56;10469956;28;20060;-78
2024/01/12 22:20:28;;;;;;;76.80;30.13;;;;;;;-0.39;100.00;101621.72;10471974;28;20048;-79
2024/01/12 22:25:32;;;;;;;53.00;21.23;;;;;;;-0.11;100.00;101609.84;10462822;28;20074;-79
2024/01/12 22:30:36;;;;;;;49.45;20.60;;;;;;;-0.24;100.00;101596.88;10470741;28;20617;-78